createdAt,value
2016-12-06T00:00:22.157Z,18.11
2016-12-06T00:00:54.488Z,18.01
2016-12-06T00:01:26.810Z,18.1
2016-12-06T00:01:59.140Z,18.08
2016-12-06T00:02:31.463Z,18.01
2016-12-06T00:03:03.785Z,18.06
2016-12-06T00:03:36.096Z,18.1
2016-12-06T00:04:08.416Z,18.1
2016-12-06T00:04:40.739Z,18.2
2016-12-06T00:05:13.058Z,18.08
2016-12-06T00:05:45.411Z,18.14
2016-12-06T00:06:17.727Z,18.06
2016-12-06T00:06:50.037Z,18.02
2016-12-06T00:07:22.344Z,18.17
2016-12-06T00:07:54.656Z,18.19
2016-12-06T00:08:26.965Z,18.03
2016-12-06T00:08:59.287Z,18.11
2016-12-06T00:09:31.614Z,18.06
2016-12-06T00:10:03.932Z,18.11
2016-12-06T00:10:36.253Z,18.02
2016-12-06T00:11:08.579Z,18.02
2016-12-06T00:11:40.896Z,18.03
2016-12-06T00:12:13.214Z,18.01
2016-12-06T00:12:45.540Z,18.1
2016-12-06T00:13:17.859Z,18.03
2016-12-06T00:13:50.165Z,18.1
2016-12-06T00:14:22.489Z,18.05
2016-12-06T00:14:54.819Z,18.06
2016-12-06T00:15:27.134Z,18.05
2016-12-06T00:15:59.465Z,18.02
2016-12-06T00:16:31.783Z,18.1
2016-12-06T00:17:04.105Z,18.03
2016-12-06T00:17:36.416Z,18.17
2016-12-06T00:18:08.735Z,18.08
2016-12-06T00:18:41.050Z,18.06
2016-12-06T00:19:13.384Z,18.1
2016-12-06T00:19:45.685Z,18.1
2016-12-06T00:20:17.980Z,18.02
2016-12-06T00:20:50.337Z,18.2
2016-12-06T00:21:22.647Z,18.02
2016-12-06T00:21:54.988Z,18.03
2016-12-06T00:22:27.295Z,18.03
2016-12-06T00:22:59.608Z,18.05
2016-12-06T00:23:31.930Z,18.16
2016-12-06T00:24:04.264Z,18.05
2016-12-06T00:24:36.581Z,18.03
2016-12-06T00:25:08.904Z,18.2
2016-12-06T00:25:41.225Z,18.06
2016-12-06T00:26:13.532Z,18.17
2016-12-06T00:26:45.840Z,18.06
2016-12-06T00:27:18.132Z,18.08
2016-12-06T00:27:50.457Z,18.23
2016-12-06T00:28:22.764Z,18.05
2016-12-06T00:28:55.071Z,18.08
2016-12-06T00:29:27.382Z,18.06
2016-12-06T00:29:59.712Z,18.11
2016-12-06T00:30:32.036Z,18.08
2016-12-06T00:31:04.355Z,18.2
2016-12-06T00:31:36.702Z,18.05
2016-12-06T00:32:09.023Z,18.1
2016-12-06T00:32:41.356Z,18.14
2016-12-06T00:33:13.681Z,18.11
2016-12-06T00:33:46.009Z,18.17
2016-12-06T00:34:18.353Z,18.19
2016-12-06T00:34:50.678Z,18.16
2016-12-06T00:35:23.003Z,18.16
2016-12-06T00:35:55.314Z,18.21
2016-12-06T00:36:27.644Z,18.05
2016-12-06T00:36:59.965Z,18.17
2016-12-06T00:37:32.303Z,18.19
2016-12-06T00:38:04.641Z,18.19
2016-12-06T00:38:36.954Z,18.08
2016-12-06T00:39:09.256Z,18.16
2016-12-06T00:39:41.600Z,18.21
2016-12-06T00:40:13.928Z,18.1
2016-12-06T00:40:46.245Z,18.17
2016-12-06T00:41:18.597Z,18.11
2016-12-06T00:41:50.907Z,18.08
2016-12-06T00:42:23.244Z,18.05
2016-12-06T00:42:55.559Z,18.16
2016-12-06T00:43:27.876Z,18.1
2016-12-06T00:44:00.180Z,18.11
2016-12-06T00:44:32.501Z,18.2
2016-12-06T00:45:04.814Z,18.17
2016-12-06T00:45:37.153Z,18.19
2016-12-06T00:46:09.449Z,18.08
2016-12-06T00:46:41.781Z,18.2
2016-12-06T00:47:14.091Z,18.14
2016-12-06T00:47:46.451Z,18.14
2016-12-06T00:48:18.769Z,18.19
2016-12-06T00:48:51.075Z,18.14
2016-12-06T00:49:23.368Z,18.1
2016-12-06T00:49:55.696Z,18.19
2016-12-06T00:50:28.034Z,18.16
2016-12-06T00:51:00.377Z,18.21
2016-12-06T00:51:32.697Z,18.17
2016-12-06T00:52:05.009Z,18.17
2016-12-06T00:52:37.325Z,18.08
2016-12-06T00:53:09.674Z,18.1
2016-12-06T00:53:42.003Z,18.05
2016-12-06T00:54:14.328Z,18.14
2016-12-06T00:54:46.665Z,18.02
2016-12-06T00:55:18.980Z,18.17
2016-12-06T00:55:51.308Z,18.1
2016-12-06T00:56:23.621Z,18.14
2016-12-06T00:56:55.934Z,18.17
2016-12-06T00:57:28.272Z,18.16
2016-12-06T00:58:00.599Z,18.2
2016-12-06T00:58:32.921Z,18.19
2016-12-06T00:59:05.254Z,18.2
2016-12-06T00:59:37.571Z,18.16
2016-12-06T01:00:09.893Z,18.11
2016-12-06T01:00:42.201Z,18.2
2016-12-06T01:01:14.516Z,18.17
2016-12-06T01:01:46.868Z,18.23
2016-12-06T01:02:19.201Z,18.14
2016-12-06T01:02:51.525Z,18.14
2016-12-06T01:03:23.837Z,18.16
2016-12-06T01:03:56.185Z,18.1
2016-12-06T01:04:28.504Z,18.13
2016-12-06T01:05:00.833Z,18.11
2016-12-06T01:05:33.130Z,18.17
2016-12-06T01:06:05.484Z,18.23
2016-12-06T01:06:37.820Z,18.21
2016-12-06T01:07:10.140Z,18.17
2016-12-06T01:07:42.452Z,18.19
2016-12-06T01:08:14.771Z,18.21
2016-12-06T01:08:47.070Z,18.19
2016-12-06T01:09:19.381Z,18.2
2016-12-06T01:09:51.688Z,18.23
2016-12-06T01:10:24.002Z,18.23
2016-12-06T01:10:56.318Z,18.19
2016-12-06T01:11:28.654Z,18.2
2016-12-06T01:12:00.979Z,18.23
2016-12-06T01:12:33.300Z,18.24
2016-12-06T01:13:05.633Z,18.16
2016-12-06T01:13:37.953Z,18.19
2016-12-06T01:14:10.276Z,18.21
2016-12-06T01:14:42.595Z,18.2
2016-12-06T01:15:14.907Z,18.24
2016-12-06T01:15:47.222Z,18.19
2016-12-06T01:16:19.534Z,18.17
2016-12-06T01:16:51.863Z,18.21
2016-12-06T01:17:24.202Z,18.21
2016-12-06T01:17:56.520Z,18.24
2016-12-06T01:18:28.841Z,18.19
2016-12-06T01:19:01.164Z,18.13
2016-12-06T01:19:33.509Z,18.19
2016-12-06T01:20:05.829Z,18.17
2016-12-06T01:20:38.141Z,18.17
2016-12-06T01:21:10.505Z,18.2
2016-12-06T01:21:42.815Z,18.14
2016-12-06T01:22:15.134Z,18.19
2016-12-06T01:22:47.439Z,18.16
2016-12-06T01:23:19.747Z,18.17
2016-12-06T01:23:52.050Z,18.17
2016-12-06T01:24:24.354Z,18.2
2016-12-06T01:24:56.668Z,18.19
2016-12-06T01:25:28.973Z,18.2
2016-12-06T01:26:01.286Z,18.2
2016-12-06T01:26:33.597Z,18.2
2016-12-06T01:27:05.904Z,18.19
2016-12-06T01:27:38.230Z,18.23
2016-12-06T01:28:10.557Z,18.2
2016-12-06T01:28:42.880Z,18.17
2016-12-06T01:29:15.210Z,18.14
2016-12-06T01:29:47.539Z,18.19
2016-12-06T01:30:19.875Z,18.16
2016-12-06T01:30:52.196Z,18.17
2016-12-06T01:31:24.506Z,18.17
2016-12-06T01:31:56.809Z,18.17
2016-12-06T01:32:29.123Z,18.16
2016-12-06T01:33:01.422Z,18.19
2016-12-06T01:33:33.736Z,18.19
2016-12-06T01:34:06.065Z,18.2
2016-12-06T01:34:38.381Z,18.2
2016-12-06T01:35:10.701Z,18.16
2016-12-06T01:35:43.008Z,18.19
2016-12-06T01:36:15.339Z,18.17
2016-12-06T01:36:47.663Z,18.13
2016-12-06T01:37:19.983Z,18.19
2016-12-06T01:37:52.289Z,18.21
2016-12-06T01:38:24.605Z,18.23
2016-12-06T01:38:56.912Z,18.16
2016-12-06T01:39:29.236Z,18.19
2016-12-06T01:40:01.552Z,18.2
2016-12-06T01:40:33.875Z,18.19
2016-12-06T01:41:06.183Z,18.16
2016-12-06T01:41:38.488Z,18.23
2016-12-06T01:42:10.818Z,18.21
2016-12-06T01:42:43.136Z,18.16
2016-12-06T01:43:15.463Z,18.23
2016-12-06T01:43:47.783Z,18.24
2016-12-06T01:44:20.089Z,18.2
2016-12-06T01:44:52.417Z,18.2
2016-12-06T01:45:24.726Z,18.16
2016-12-06T01:45:57.039Z,18.21
2016-12-06T01:46:29.361Z,18.21
2016-12-06T01:47:01.662Z,18.19
2016-12-06T01:47:33.989Z,18.17
2016-12-06T01:48:06.297Z,18.19
2016-12-06T01:48:38.630Z,18.23
2016-12-06T01:49:10.987Z,18.26
2016-12-06T01:49:43.299Z,18.17
2016-12-06T01:50:15.618Z,18.19
2016-12-06T01:50:47.952Z,18.17
2016-12-06T01:51:20.260Z,18.26
2016-12-06T01:51:52.604Z,18.21
2016-12-06T01:52:24.916Z,18.26
2016-12-06T01:52:57.279Z,18.14
2016-12-06T01:53:29.601Z,18.19
2016-12-06T01:54:01.907Z,18.17
2016-12-06T01:54:34.236Z,18.24
2016-12-06T01:55:06.547Z,18.16
2016-12-06T01:55:38.872Z,18.21
2016-12-06T01:56:11.204Z,18.27
2016-12-06T01:56:43.540Z,18.31
2016-12-06T01:57:15.853Z,18.29
2016-12-06T01:57:48.164Z,18.24
2016-12-06T01:58:20.489Z,18.27
2016-12-06T01:58:52.807Z,18.21
2016-12-06T01:59:25.130Z,18.29
2016-12-06T01:59:57.451Z,18.26
2016-12-06T02:00:29.768Z,18.31
2016-12-06T02:01:02.086Z,18.2
2016-12-06T02:01:34.406Z,18.29
2016-12-06T02:02:06.714Z,18.27
2016-12-06T02:02:39.026Z,18.27
2016-12-06T02:03:11.369Z,18.27
2016-12-06T02:03:43.722Z,18.34
2016-12-06T02:04:16.041Z,18.29
2016-12-06T02:04:48.388Z,18.23
2016-12-06T02:05:20.704Z,18.29
2016-12-06T02:05:53.037Z,18.31
2016-12-06T02:06:25.376Z,18.27
2016-12-06T02:06:57.686Z,18.31
2016-12-06T02:07:29.998Z,18.24
2016-12-06T02:08:02.327Z,18.32
2016-12-06T02:08:34.650Z,18.17
2016-12-06T02:09:06.970Z,18.31
2016-12-06T02:09:39.285Z,18.31
2016-12-06T02:10:11.608Z,18.31
2016-12-06T02:10:43.935Z,18.31
2016-12-06T02:11:16.258Z,18.34
2016-12-06T02:11:48.586Z,18.29
2016-12-06T02:12:20.892Z,18.38
2016-12-06T02:12:53.213Z,18.31
2016-12-06T02:13:25.546Z,18.29
2016-12-06T02:13:57.866Z,18.24
2016-12-06T02:14:30.195Z,18.21
2016-12-06T02:15:02.508Z,18.32
2016-12-06T02:15:34.842Z,18.29
2016-12-06T02:16:07.158Z,18.32
2016-12-06T02:16:39.478Z,18.31
2016-12-06T02:17:11.796Z,18.36
2016-12-06T02:17:44.110Z,18.29
2016-12-06T02:18:16.429Z,18.27
2016-12-06T02:18:48.748Z,18.32
2016-12-06T02:19:21.079Z,18.21
2016-12-06T02:19:53.380Z,18.32
2016-12-06T02:20:25.709Z,18.32
2016-12-06T02:20:58.015Z,18.29
2016-12-06T02:21:30.322Z,18.34
2016-12-06T02:22:02.667Z,18.31
2016-12-06T02:22:34.986Z,18.27
2016-12-06T02:23:07.318Z,18.31
2016-12-06T02:23:39.638Z,18.34
2016-12-06T02:24:11.969Z,18.31
2016-12-06T02:24:44.282Z,18.34
2016-12-06T02:25:16.587Z,18.32
2016-12-06T02:25:48.906Z,18.27
2016-12-06T02:26:21.229Z,18.31
2016-12-06T02:26:53.542Z,18.21
2016-12-06T02:27:25.862Z,18.29
2016-12-06T02:27:58.201Z,18.26
2016-12-06T02:28:30.520Z,18.31
2016-12-06T02:29:02.831Z,18.38
2016-12-06T02:29:35.140Z,18.29
2016-12-06T02:30:07.443Z,18.29
2016-12-06T02:30:39.770Z,18.29
2016-12-06T02:31:12.066Z,18.35
2016-12-06T02:31:44.405Z,18.29
2016-12-06T02:32:16.718Z,18.31
2016-12-06T02:32:49.031Z,18.2
2016-12-06T02:33:21.370Z,18.31
2016-12-06T02:33:53.695Z,18.31
2016-12-06T02:34:26.001Z,18.29
2016-12-06T02:34:58.311Z,18.29
2016-12-06T02:35:30.629Z,18.27
2016-12-06T02:36:02.932Z,18.31
2016-12-06T02:36:35.270Z,18.34
2016-12-06T02:37:07.585Z,18.29
2016-12-06T02:37:39.898Z,18.29
2016-12-06T02:38:12.209Z,18.27
2016-12-06T02:38:44.525Z,18.27
2016-12-06T02:39:16.849Z,18.36
2016-12-06T02:39:49.175Z,18.26
2016-12-06T02:40:21.494Z,18.17
2016-12-06T02:40:53.801Z,18.17
2016-12-06T02:41:26.123Z,18.24
2016-12-06T02:41:58.447Z,18.19
2016-12-06T02:42:30.771Z,18.21
2016-12-06T02:43:03.111Z,18.26
2016-12-06T02:43:35.419Z,18.27
2016-12-06T02:44:07.737Z,18.31
2016-12-06T02:44:40.049Z,18.21
2016-12-06T02:45:12.367Z,18.2
2016-12-06T02:45:44.686Z,18.23
2016-12-06T02:46:17.013Z,18.27
2016-12-06T02:46:49.341Z,18.32
2016-12-06T02:47:21.657Z,18.21
2016-12-06T02:47:54.014Z,18.2
2016-12-06T02:48:26.329Z,18.19
2016-12-06T02:48:58.650Z,18.21
2016-12-06T02:49:30.967Z,18.19
2016-12-06T02:50:03.283Z,18.21
2016-12-06T02:50:35.640Z,18.2
2016-12-06T02:51:07.968Z,18.23
2016-12-06T02:51:40.266Z,18.31
2016-12-06T02:52:12.591Z,18.17
2016-12-06T02:52:44.916Z,18.23
2016-12-06T02:53:17.236Z,18.23
2016-12-06T02:53:49.558Z,18.17
2016-12-06T02:54:21.868Z,18.2
2016-12-06T02:54:54.211Z,18.19
2016-12-06T02:55:26.537Z,18.16
2016-12-06T02:55:58.856Z,18.19
2016-12-06T02:56:31.174Z,18.24
2016-12-06T02:57:03.479Z,18.17
2016-12-06T02:57:35.818Z,18.19
2016-12-06T02:58:08.129Z,18.17
2016-12-06T02:58:40.442Z,18.21
2016-12-06T02:59:12.777Z,18.27
2016-12-06T02:59:45.082Z,18.19
2016-12-06T03:00:17.407Z,18.13
2016-12-06T03:00:49.721Z,18.17
2016-12-06T03:01:22.025Z,18.2
2016-12-06T03:01:54.352Z,18.16
2016-12-06T03:02:26.696Z,18.21
2016-12-06T03:02:59.011Z,18.14
2016-12-06T03:03:31.345Z,18.26
2016-12-06T03:04:03.659Z,18.23
2016-12-06T03:04:35.964Z,18.24
2016-12-06T03:05:08.315Z,18.2
2016-12-06T03:05:40.637Z,18.17
2016-12-06T03:06:12.966Z,18.24
2016-12-06T03:06:45.288Z,18.17
2016-12-06T03:07:17.614Z,18.14
2016-12-06T03:07:49.942Z,18.24
2016-12-06T03:08:22.270Z,18.21
2016-12-06T03:08:54.575Z,18.19
2016-12-06T03:09:26.898Z,18.2
2016-12-06T03:09:59.204Z,18.19
2016-12-06T03:10:31.512Z,18.16
2016-12-06T03:11:03.839Z,18.2
2016-12-06T03:11:36.159Z,18.21
2016-12-06T03:12:08.467Z,18.16
2016-12-06T03:12:40.809Z,18.14
2016-12-06T03:13:13.125Z,18.17
2016-12-06T03:13:45.454Z,18.19
2016-12-06T03:14:17.767Z,18.19
2016-12-06T03:14:50.081Z,18.14
2016-12-06T03:15:22.385Z,18.19
2016-12-06T03:15:54.724Z,18.23
2016-12-06T03:16:27.043Z,18.17
2016-12-06T03:16:59.361Z,18.19
2016-12-06T03:17:31.669Z,18.14
2016-12-06T03:18:03.981Z,18.14
2016-12-06T03:18:36.294Z,18.17
2016-12-06T03:19:08.608Z,18.14
2016-12-06T03:19:40.934Z,18.17
2016-12-06T03:20:13.293Z,18.16
2016-12-06T03:20:45.650Z,18.14
2016-12-06T03:21:17.977Z,18.21
2016-12-06T03:21:50.336Z,18.2
2016-12-06T03:22:22.656Z,18.2
2016-12-06T03:22:54.975Z,18.24
2016-12-06T03:23:27.311Z,18.13
2016-12-06T03:23:59.661Z,18.14
2016-12-06T03:24:31.972Z,18.23
2016-12-06T03:25:04.300Z,18.19
2016-12-06T03:25:36.627Z,18.19
2016-12-06T03:26:08.955Z,18.21
2016-12-06T03:26:41.260Z,18.19
2016-12-06T03:27:13.561Z,18.19
2016-12-06T03:27:45.883Z,18.17
2016-12-06T03:28:18.199Z,18.2
2016-12-06T03:28:50.499Z,18.14
2016-12-06T03:29:22.828Z,18.21
2016-12-06T03:29:55.159Z,18.21
2016-12-06T03:30:27.466Z,18.23
2016-12-06T03:30:59.778Z,18.14
2016-12-06T03:31:32.103Z,18.13
2016-12-06T03:32:04.414Z,18.21
2016-12-06T03:32:36.744Z,18.2
2016-12-06T03:33:09.034Z,18.23
2016-12-06T03:33:41.356Z,18.11
2016-12-06T03:34:13.670Z,18.16
2016-12-06T03:34:45.993Z,18.16
2016-12-06T03:35:18.321Z,18.19
2016-12-06T03:35:50.645Z,18.19
2016-12-06T03:36:22.965Z,18.14
2016-12-06T03:36:55.313Z,18.2
2016-12-06T03:37:27.618Z,18.2
2016-12-06T03:37:59.947Z,18.23
2016-12-06T03:38:32.271Z,18.11
2016-12-06T03:39:04.595Z,18.17
2016-12-06T03:39:36.918Z,18.29
2016-12-06T03:40:09.236Z,18.21
2016-12-06T03:40:41.583Z,18.17
2016-12-06T03:41:13.897Z,18.17
2016-12-06T03:41:46.215Z,18.19
2016-12-06T03:42:18.532Z,18.19
2016-12-06T03:42:50.850Z,18.2
2016-12-06T03:43:23.174Z,18.19
2016-12-06T03:43:55.468Z,18.16
2016-12-06T03:44:27.775Z,18.21
2016-12-06T03:45:00.086Z,18.19
2016-12-06T03:45:32.369Z,18.2
2016-12-06T03:46:04.686Z,18.16
2016-12-06T03:46:37.008Z,18.19
2016-12-06T03:47:09.328Z,18.16
2016-12-06T03:47:41.645Z,18.32
2016-12-06T03:48:13.965Z,18.19
2016-12-06T03:48:46.282Z,18.23
2016-12-06T03:49:18.597Z,18.17
2016-12-06T03:49:50.896Z,18.19
2016-12-06T03:50:23.209Z,18.13
2016-12-06T03:50:55.548Z,18.17
2016-12-06T03:51:27.862Z,18.14
2016-12-06T03:52:00.188Z,18.23
2016-12-06T03:52:32.502Z,18.16
2016-12-06T03:53:04.815Z,18.17
2016-12-06T03:53:37.133Z,18.17
2016-12-06T03:54:09.449Z,18.2
2016-12-06T03:54:41.797Z,18.23
2016-12-06T03:55:14.108Z,18.14
2016-12-06T03:55:46.442Z,18.19
2016-12-06T03:56:18.753Z,18.2
2016-12-06T03:56:51.082Z,18.19
2016-12-06T03:57:23.409Z,18.16
2016-12-06T03:57:55.738Z,18.24
2016-12-06T03:58:28.062Z,18.19
2016-12-06T03:59:00.381Z,18.16
2016-12-06T03:59:32.723Z,18.17
2016-12-06T04:00:05.039Z,18.2
2016-12-06T04:00:37.365Z,18.2
2016-12-06T04:01:09.685Z,18.17
2016-12-06T04:01:41.991Z,18.19
2016-12-06T04:02:14.314Z,18.17
2016-12-06T04:02:46.640Z,18.27
2016-12-06T04:03:18.946Z,18.19
2016-12-06T04:03:51.300Z,18.19
2016-12-06T04:04:23.622Z,18.26
2016-12-06T04:04:55.955Z,18.2
2016-12-06T04:05:28.267Z,18.24
2016-12-06T04:06:00.601Z,18.19
2016-12-06T04:06:32.922Z,18.2
2016-12-06T04:07:05.235Z,18.2
2016-12-06T04:07:37.537Z,18.21
2016-12-06T04:08:09.847Z,18.19
2016-12-06T04:08:42.168Z,18.16
2016-12-06T04:09:14.492Z,18.2
2016-12-06T04:09:46.799Z,18.21
2016-12-06T04:10:19.121Z,18.2
2016-12-06T04:10:51.440Z,18.16
2016-12-06T04:11:23.759Z,18.24
2016-12-06T04:11:56.073Z,18.19
2016-12-06T04:12:28.384Z,18.26
2016-12-06T04:13:00.696Z,18.17
2016-12-06T04:13:33.002Z,18.26
2016-12-06T04:14:05.322Z,18.2
2016-12-06T04:14:37.643Z,18.24
2016-12-06T04:15:09.961Z,18.21
2016-12-06T04:15:42.288Z,18.19
2016-12-06T04:16:14.602Z,18.16
2016-12-06T04:16:46.917Z,18.27
2016-12-06T04:17:19.240Z,18.23
2016-12-06T04:17:51.547Z,18.21
2016-12-06T04:18:23.865Z,18.23
2016-12-06T04:18:56.177Z,18.17
2016-12-06T04:19:28.500Z,18.19
2016-12-06T04:20:00.838Z,18.21
2016-12-06T04:20:33.144Z,18.16
2016-12-06T04:21:05.475Z,18.23
2016-12-06T04:21:37.770Z,18.23
2016-12-06T04:22:10.071Z,18.36
2016-12-06T04:22:42.383Z,18.21
2016-12-06T04:23:14.740Z,18.34
2016-12-06T04:23:47.052Z,18.21
2016-12-06T04:24:19.374Z,18.26
2016-12-06T04:24:51.701Z,18.2
2016-12-06T04:25:24.024Z,18.27
2016-12-06T04:25:56.362Z,18.31
2016-12-06T04:26:28.707Z,18.31
2016-12-06T04:27:01.034Z,18.24
2016-12-06T04:27:33.354Z,18.21
2016-12-06T04:28:05.713Z,18.2
2016-12-06T04:28:38.033Z,18.21
2016-12-06T04:29:10.343Z,18.24
2016-12-06T04:29:42.671Z,18.27
2016-12-06T04:30:15.008Z,18.19
2016-12-06T04:30:47.323Z,18.21
2016-12-06T04:31:19.648Z,18.21
2016-12-06T04:31:51.951Z,18.16
2016-12-06T04:32:24.272Z,18.21
2016-12-06T04:32:56.602Z,18.21
2016-12-06T04:33:28.921Z,18.2
2016-12-06T04:34:01.233Z,18.21
2016-12-06T04:34:33.552Z,18.21
2016-12-06T04:35:05.876Z,18.27
2016-12-06T04:35:38.182Z,18.26
2016-12-06T04:36:10.505Z,18.23
2016-12-06T04:36:42.891Z,18.35
2016-12-06T04:37:15.206Z,18.29
2016-12-06T04:37:47.558Z,18.24
2016-12-06T04:38:19.856Z,18.32
2016-12-06T04:38:52.167Z,18.21
2016-12-06T04:39:24.508Z,18.19
2016-12-06T04:39:56.805Z,18.21
2016-12-06T04:40:29.106Z,18.2
2016-12-06T04:41:01.418Z,18.2
2016-12-06T04:41:33.737Z,18.32
2016-12-06T04:42:06.059Z,18.31
2016-12-06T04:42:38.381Z,18.23
2016-12-06T04:43:10.695Z,18.21
2016-12-06T04:43:43.007Z,18.34
2016-12-06T04:44:15.320Z,18.29
2016-12-06T04:44:47.636Z,18.21
2016-12-06T04:45:19.965Z,18.29
2016-12-06T04:45:52.270Z,18.17
2016-12-06T04:46:24.594Z,18.34
2016-12-06T04:46:56.921Z,18.19
2016-12-06T04:47:29.239Z,18.19
2016-12-06T04:48:01.562Z,18.34
2016-12-06T04:48:33.883Z,18.26
2016-12-06T04:49:06.199Z,18.31
2016-12-06T04:49:38.505Z,18.31
2016-12-06T04:50:10.820Z,18.34
2016-12-06T04:50:43.141Z,18.27
2016-12-06T04:51:15.454Z,18.19
2016-12-06T04:51:47.773Z,18.27
2016-12-06T04:52:20.091Z,18.26
2016-12-06T04:52:52.431Z,18.27
2016-12-06T04:53:24.745Z,18.26
2016-12-06T04:53:57.092Z,18.23
2016-12-06T04:54:29.407Z,18.21
2016-12-06T04:55:01.735Z,18.26
2016-12-06T04:55:34.045Z,18.23
2016-12-06T04:56:06.357Z,18.29
2016-12-06T04:56:38.694Z,18.23
2016-12-06T04:57:11.014Z,18.31
2016-12-06T04:57:43.375Z,18.31
2016-12-06T04:58:15.686Z,18.29
2016-12-06T04:58:47.996Z,18.2
2016-12-06T04:59:20.309Z,18.24
2016-12-06T04:59:52.635Z,18.31
2016-12-06T05:00:24.951Z,18.27
2016-12-06T05:00:57.273Z,18.26
2016-12-06T05:01:29.586Z,18.27
2016-12-06T05:02:01.897Z,18.32
2016-12-06T05:02:34.223Z,18.29
2016-12-06T05:03:06.542Z,18.27
2016-12-06T05:03:38.874Z,18.2
2016-12-06T05:04:11.193Z,18.21
2016-12-06T05:04:43.509Z,18.17
2016-12-06T05:05:15.820Z,18.23
2016-12-06T05:05:48.144Z,18.21
2016-12-06T05:06:20.458Z,18.2
2016-12-06T05:06:52.765Z,18.27
2016-12-06T05:07:25.079Z,18.27
2016-12-06T05:07:57.405Z,18.32
2016-12-06T05:08:29.723Z,18.21
2016-12-06T05:09:02.053Z,18.31
2016-12-06T05:09:34.382Z,18.26
2016-12-06T05:10:06.701Z,18.32
2016-12-06T05:10:39.025Z,18.21
2016-12-06T05:11:11.364Z,18.2
2016-12-06T05:11:43.671Z,18.24
2016-12-06T05:12:15.988Z,18.27
2016-12-06T05:12:48.330Z,18.21
2016-12-06T05:13:20.646Z,18.23
2016-12-06T05:13:52.966Z,18.35
2016-12-06T05:14:25.275Z,18.29
2016-12-06T05:14:57.615Z,18.31
2016-12-06T05:15:29.945Z,18.21
2016-12-06T05:16:02.271Z,18.17
2016-12-06T05:16:34.587Z,18.34
2016-12-06T05:17:06.907Z,18.19
2016-12-06T05:17:39.228Z,18.29
2016-12-06T05:18:11.533Z,18.26
2016-12-06T05:18:43.840Z,18.14
2016-12-06T05:19:16.155Z,18.23
2016-12-06T05:19:48.481Z,18.17
2016-12-06T05:20:20.804Z,18.17
2016-12-06T05:20:53.119Z,18.21
2016-12-06T05:21:25.420Z,18.32
2016-12-06T05:21:57.760Z,18.21
2016-12-06T05:22:30.077Z,18.19
2016-12-06T05:23:02.404Z,18.21
2016-12-06T05:23:34.717Z,18.23
2016-12-06T05:24:07.033Z,18.31
2016-12-06T05:24:39.356Z,18.29
2016-12-06T05:25:11.686Z,18.14
2016-12-06T05:25:44.018Z,18.23
2016-12-06T05:26:16.345Z,18.19
2016-12-06T05:26:48.673Z,18.21
2016-12-06T05:27:20.989Z,18.17
2016-12-06T05:27:53.314Z,18.21
2016-12-06T05:28:25.632Z,18.23
2016-12-06T05:28:57.941Z,18.16
2016-12-06T05:29:30.290Z,18.19
2016-12-06T05:30:02.602Z,18.2
2016-12-06T05:30:34.935Z,18.17
2016-12-06T05:31:07.259Z,18.17
2016-12-06T05:31:39.581Z,18.19
2016-12-06T05:32:11.889Z,18.16
2016-12-06T05:32:44.208Z,18.16
2016-12-06T05:33:16.530Z,18.16
2016-12-06T05:33:48.855Z,18.2
2016-12-06T05:34:21.180Z,18.17
2016-12-06T05:34:53.514Z,18.16
2016-12-06T05:35:25.820Z,18.16
2016-12-06T05:35:58.126Z,18.16
2016-12-06T05:36:30.442Z,18.23
2016-12-06T05:37:02.757Z,18.26
2016-12-06T05:37:35.079Z,18.17
2016-12-06T05:38:07.391Z,18.14
2016-12-06T05:38:39.713Z,18.21
2016-12-06T05:39:12.035Z,18.21
2016-12-06T05:39:44.367Z,18.21
2016-12-06T05:40:16.701Z,18.19
2016-12-06T05:40:49.053Z,18.16
2016-12-06T05:41:21.387Z,18.23
2016-12-06T05:41:53.716Z,18.21
2016-12-06T05:42:26.030Z,18.26
2016-12-06T05:42:58.392Z,18.19
2016-12-06T05:43:30.715Z,18.2
2016-12-06T05:44:03.028Z,18.16
2016-12-06T05:44:35.366Z,18.19
2016-12-06T05:45:07.693Z,18.19
2016-12-06T05:45:40.004Z,18.23
2016-12-06T05:46:12.328Z,18.17
2016-12-06T05:46:44.652Z,18.14
2016-12-06T05:47:16.971Z,18.16
2016-12-06T05:47:49.288Z,18.21
2016-12-06T05:48:21.594Z,18.2
2016-12-06T05:48:53.921Z,18.14
2016-12-06T05:49:26.246Z,18.19
2016-12-06T05:49:58.568Z,18.24
2016-12-06T05:50:30.878Z,18.16
2016-12-06T05:51:03.220Z,18.21
2016-12-06T05:51:35.546Z,18.2
2016-12-06T05:52:07.880Z,18.14
2016-12-06T05:52:40.213Z,18.23
2016-12-06T05:53:12.525Z,18.21
2016-12-06T05:53:44.860Z,18.17
2016-12-06T05:54:17.176Z,18.19
2016-12-06T05:54:49.484Z,18.19
2016-12-06T05:55:21.790Z,18.19
2016-12-06T05:55:54.122Z,18.21
2016-12-06T05:56:26.451Z,18.19
2016-12-06T05:56:58.777Z,18.23
2016-12-06T05:57:31.103Z,18.19
2016-12-06T05:58:03.420Z,18.16
2016-12-06T05:58:35.740Z,18.2
2016-12-06T05:59:08.110Z,18.16
2016-12-06T05:59:40.422Z,18.2
2016-12-06T06:00:12.745Z,18.17
2016-12-06T06:00:45.057Z,18.16
2016-12-06T06:01:17.393Z,18.13
2016-12-06T06:01:49.728Z,18.21
2016-12-06T06:02:22.037Z,18.16
2016-12-06T06:02:54.363Z,18.17
2016-12-06T06:03:26.698Z,18.19
2016-12-06T06:03:59.010Z,18.13
2016-12-06T06:04:31.332Z,18.14
2016-12-06T06:05:03.648Z,18.19
2016-12-06T06:05:35.957Z,18.17
2016-12-06T06:06:08.261Z,18.14
2016-12-06T06:06:40.593Z,18.23
2016-12-06T06:07:12.914Z,18.16
2016-12-06T06:07:45.208Z,18.14
2016-12-06T06:08:17.589Z,18.17
2016-12-06T06:08:49.909Z,18.19
2016-12-06T06:09:22.221Z,18.2
2016-12-06T06:09:54.550Z,18.19
2016-12-06T06:10:26.899Z,18.2
2016-12-06T06:10:59.206Z,18.13
2016-12-06T06:11:31.528Z,18.21
2016-12-06T06:12:03.839Z,18.13
2016-12-06T06:12:36.197Z,18.19
2016-12-06T06:13:08.528Z,18.2
2016-12-06T06:13:40.858Z,18.21
2016-12-06T06:14:13.173Z,18.2
2016-12-06T06:14:45.497Z,18.17
2016-12-06T06:15:17.816Z,18.2
2016-12-06T06:15:50.138Z,18.23
2016-12-06T06:16:22.452Z,18.2
2016-12-06T06:16:54.773Z,18.17
2016-12-06T06:17:27.105Z,18.17
2016-12-06T06:17:59.802Z,18.17
2016-12-06T06:18:32.210Z,18.14
2016-12-06T06:19:04.521Z,18.19
2016-12-06T06:19:36.884Z,18.16
2016-12-06T06:20:09.214Z,18.19
2016-12-06T06:20:41.530Z,18.2
2016-12-06T06:21:13.866Z,18.23
2016-12-06T06:21:46.180Z,18.19
2016-12-06T06:22:18.497Z,18.17
2016-12-06T06:22:50.878Z,18.2
2016-12-06T06:23:23.209Z,18.23
2016-12-06T06:23:55.538Z,18.21
2016-12-06T06:24:27.886Z,18.2
2016-12-06T06:25:00.188Z,18.2
2016-12-06T06:25:32.509Z,18.17
2016-12-06T06:26:04.830Z,18.14
2016-12-06T06:26:37.133Z,18.24
2016-12-06T06:27:09.454Z,18.21
2016-12-06T06:27:41.776Z,18.2
2016-12-06T06:28:16.544Z,18.14
2016-12-06T06:28:49.837Z,18.17
2016-12-06T06:29:22.161Z,18.2
2016-12-06T06:29:54.494Z,18.16
2016-12-06T06:30:26.821Z,18.17
2016-12-06T06:30:59.151Z,18.21
2016-12-06T06:31:31.469Z,18.14
2016-12-06T06:32:03.820Z,18.16
2016-12-06T06:32:36.162Z,18.23
2016-12-06T06:33:08.795Z,18.2
2016-12-06T06:33:41.813Z,18.23
2016-12-06T06:34:14.133Z,18.17
2016-12-06T06:34:46.715Z,18.2
2016-12-06T06:35:19.934Z,18.2
2016-12-06T06:35:52.257Z,18.19
2016-12-06T06:36:24.578Z,18.2
2016-12-06T06:36:57.929Z,18.24
2016-12-06T06:37:31.884Z,18.19
2016-12-06T06:38:04.205Z,18.21
2016-12-06T06:38:38.927Z,18.16
2016-12-06T06:39:12.759Z,18.2
2016-12-06T06:39:45.642Z,18.23
2016-12-06T06:40:18.178Z,18.16
2016-12-06T06:40:51.951Z,18.16
2016-12-06T06:41:25.835Z,18.16
2016-12-06T06:41:59.466Z,18.19
2016-12-06T06:43:54.533Z,18.17
2016-12-06T06:44:28.308Z,18.2
2016-12-06T06:45:02.634Z,18.14
2016-12-06T06:45:36.821Z,18.17
2016-12-06T06:46:11.418Z,18.19
2016-12-06T06:46:47.145Z,18.16
2016-12-06T06:47:20.784Z,18.21
2016-12-06T06:47:54.891Z,18.27
2016-12-06T06:48:27.300Z,18.24
2016-12-06T06:48:59.628Z,18.16
2016-12-06T06:49:31.992Z,18.2
2016-12-06T06:50:04.325Z,18.2
2016-12-06T06:50:36.646Z,18.23
2016-12-06T06:51:08.955Z,18.21
2016-12-06T06:51:41.273Z,18.21
2016-12-06T06:52:13.568Z,18.19
2016-12-06T06:52:45.874Z,18.2
2016-12-06T06:53:18.389Z,18.17
2016-12-06T06:53:51.306Z,18.14
2016-12-06T06:54:23.675Z,18.14
2016-12-06T06:54:57.339Z,18.16
2016-12-06T06:55:29.652Z,18.19
2016-12-06T06:56:01.973Z,18.16
2016-12-06T06:56:34.515Z,18.14
2016-12-06T06:57:06.845Z,18.17
2016-12-06T06:57:39.395Z,18.2
2016-12-06T06:58:12.064Z,18.2
2016-12-06T06:58:44.405Z,18.16
2016-12-06T06:59:16.881Z,18.17
2016-12-06T06:59:50.166Z,18.17
2016-12-06T07:00:22.718Z,18.1